Time;durP1;ratioP1;P1;durP2;ratioP2;P2;SDS_P1;SDS_P2;PMS_P1;PMS_P2;Temp;Humidity;BMP_temperature;BMP_pressure;BME280_temperature;BME280_humidity;BME280_pressure;Samples;Min_cycle;Max_cycle;Signal;HPM_P1;HPM_P2
2021/05/14 00:00:36;;;;;;;4.20;2.92;;;;;;;10.21;100.00;95564.53;4979618;28;20065;-46
2021/05/14 00:03:05;;;;;;;3.08;2.75;;;;;;;10.18;100.00;95557.78;4977185;28;20051;-46
2021/05/14 00:05:36;;;;;;;3.13;2.67;;;;;;;10.08;100.00;95558.94;4983006;28;20563;-47
2021/05/14 00:08:06;;;;;;;3.47;3.08;;;;;;;10.12;100.00;95563.72;4981838;28;20042;-48
2021/05/14 00:10:38;;;;;;;5.45;2.70;;;;;;;9.97;100.00;95552.16;4971788;28;20704;-44
2021/05/14 00:13:08;;;;;;;3.38;2.85;;;;;;;10.10;100.00;95559.59;4988602;28;20042;-46
2021/05/14 00:15:36;;;;;;;3.20;2.90;;;;;;;10.19;100.00;95556.81;4973030;28;20066;-47
2021/05/14 00:18:05;;;;;;;3.05;2.63;;;;;;;10.07;100.00;95552.84;4970466;28;20086;-45
2021/05/14 00:20:35;;;;;;;3.45;3.00;;;;;;;10.09;100.00;95560.59;4983348;28;20563;-45
2021/05/14 00:23:05;;;;;;;6.30;2.88;;;;;;;9.96;100.00;95555.81;4976633;28;20042;-45
2021/05/14 00:25:34;;;;;;;3.38;2.78;;;;;;;10.10;100.00;95551.69;4976598;28;20038;-45
2021/05/14 00:28:03;;;;;;;3.78;2.80;;;;;;;10.07;100.00;95555.47;4974765;28;20070;-47
2021/05/14 00:30:32;;;;;;;3.28;2.97;;;;;;;10.09;100.00;95550.06;4975064;28;20134;-48
2021/05/14 00:33:01;;;;;;;3.27;2.97;;;;;;;9.96;100.00;95561.06;4976432;28;20066;-52
2021/05/14 00:35:29;;;;;;;4.07;3.20;;;;;;;10.06;100.00;95558.28;4984940;28;20481;-48
2021/05/14 00:37:59;;;;;;;3.25;2.90;;;;;;;9.89;100.00;95554.81;4977776;28;20465;-48
2021/05/14 00:40:28;;;;;;;4.18;3.30;;;;;;;9.85;100.00;95548.22;4980351;28;20050;-45
2021/05/14 00:42:58;;;;;;;3.38;2.95;;;;;;;9.67;100.00;95562.34;4978331;28;20046;-51
2021/05/14 00:45:26;;;;;;;3.83;3.10;;;;;;;9.68;100.00;95560.53;4974396;28;20054;-46
2021/05/14 00:47:56;;;;;;;4.75;3.08;;;;;;;9.54;100.00;95561.97;4981502;28;20062;-47
2021/05/14 00:50:25;;;;;;;3.63;3.08;;;;;;;9.67;100.00;95561.50;4979861;28;20538;-46
2021/05/14 00:52:54;;;;;;;3.72;3.15;;;;;;;9.62;100.00;95566.44;4979878;28;20070;-46
2021/05/14 00:55:24;;;;;;;4.50;3.15;;;;;;;9.62;100.00;95556.72;4984523;28;20043;-45
2021/05/14 00:57:52;;;;;;;;;;;;;;;9.62;100.00;95562.00;4978069;28;20042;-46
2021/05/14 01:00:21;;;;;;;6.03;3.45;;;;;;;9.62;100.00;95559.34;4975419;28;19980;-45
2021/05/14 01:03:13;;;;;;;5.05;2.90;;;;;;;9.45;100.00;95557.66;4972175;28;20536;-46
2021/05/14 01:05:42;;;;;;;4.03;3.10;;;;;;;9.39;100.00;95564.38;4976363;28;20075;-48
2021/05/14 01:08:11;;;;;;;3.85;3.15;;;;;;;9.42;100.00;95566.69;4974693;28;20068;-45
2021/05/14 01:10:41;;;;;;;5.00;3.42;;;;;;;9.32;100.00;95563.38;4976219;28;20046;-47
2021/05/14 01:13:26;;;;;;;3.40;2.78;;;;;;;9.15;100.00;95570.41;4974551;28;20668;-45
2021/05/14 01:15:55;;;;;;;3.95;3.30;;;;;;;9.30;100.00;95561.91;4974274;28;20063;-46
2021/05/14 01:18:23;;;;;;;3.40;3.10;;;;;;;9.31;100.00;95566.16;4976570;28;20051;-45
2021/05/14 01:20:53;;;;;;;3.65;3.25;;;;;;;9.34;100.00;95560.59;4984532;23;20078;-61
2021/05/14 01:23:22;;;;;;;4.03;2.90;;;;;;;9.26;100.00;95562.22;5009261;28;20054;-59
2021/05/14 01:25:51;;;;;;;3.83;3.13;;;;;;;9.27;100.00;95555.13;5007728;28;20054;-62
2021/05/14 01:28:20;;;;;;;3.65;2.72;;;;;;;9.22;100.00;95562.66;5002808;28;20082;-64
2021/05/14 01:30:48;;;;;;;3.67;3.10;;;;;;;9.15;100.00;95567.75;5002039;28;20445;-64
2021/05/14 01:33:18;;;;;;;3.65;3.17;;;;;;;9.02;100.00;95564.75;4999680;28;20076;-61
2021/05/14 01:35:49;;;;;;;3.35;3.03;;;;;;;9.24;100.00;95566.78;4997480;28;20045;-61
2021/05/14 01:38:19;;;;;;;3.78;2.88;;;;;;;9.09;100.00;95568.38;4987008;28;20069;-60
2021/05/14 01:40:48;;;;;;;3.35;3.00;;;;;;;9.16;100.00;95566.78;5007812;28;20100;-61
2021/05/14 01:43:16;;;;;;;5.10;3.42;;;;;;;9.12;100.00;95564.59;5001338;28;20463;-60
2021/05/14 01:45:46;;;;;;;3.90;2.92;;;;;;;9.09;100.00;95560.50;5002497;28;20038;-63
2021/05/14 01:48:15;;;;;;;4.65;3.38;;;;;;;9.01;100.00;95568.31;5008133;28;20562;-62
2021/05/14 01:50:45;;;;;;;4.57;3.10;;;;;;;8.85;100.00;95566.44;5009484;28;20539;-59
2021/05/14 01:53:14;;;;;;;4.07;3.10;;;;;;;8.92;100.00;95567.47;5011089;28;20041;-61
2021/05/14 01:55:44;;;;;;;3.33;3.03;;;;;;;8.98;100.00;95573.91;5005733;28;20075;-59
2021/05/14 01:58:14;;;;;;;3.40;3.10;;;;;;;8.85;100.00;95568.25;4991542;28;20045;-58
2021/05/14 02:00:43;;;;;;;3.30;3.00;;;;;;;8.85;100.00;95576.16;5007759;28;20073;-58
2021/05/14 02:03:12;;;;;;;3.83;3.33;;;;;;;8.92;100.00;95569.28;5004885;28;20048;-60
2021/05/14 02:05:41;;;;;;;4.68;3.08;;;;;;;8.96;100.00;95562.72;5005748;28;20126;-60
2021/05/14 02:08:10;;;;;;;3.42;3.13;;;;;;;8.89;100.00;95572.22;5009904;28;20208;-59
2021/05/14 02:10:39;;;;;;;3.80;3.33;;;;;;;8.97;100.00;95573.06;5000022;28;20069;-59
2021/05/14 02:13:10;;;;;;;4.07;2.80;;;;;;;8.97;100.00;95569.63;5007489;28;20535;-59
2021/05/14 02:15:39;;;;;;;3.30;2.97;;;;;;;9.06;100.00;95567.88;5006533;28;20069;-62
2021/05/14 02:18:08;;;;;;;3.47;3.00;;;;;;;8.83;100.00;95571.03;5003968;28;20046;-62
2021/05/14 02:20:37;;;;;;;4.82;2.78;;;;;;;8.84;100.00;95563.97;5001576;28;20081;-62
2021/05/14 02:23:06;;;;;;;3.08;2.60;;;;;;;8.83;100.00;95565.78;5010399;28;20090;-62
2021/05/14 02:25:35;;;;;;;3.83;3.33;;;;;;;8.97;100.00;95570.44;5004414;28;20137;-62
2021/05/14 02:28:06;;;;;;;3.20;2.90;;;;;;;9.03;100.00;95566.38;5005104;28;20081;-59
2021/05/14 02:30:36;;;;;;;3.67;2.67;;;;;;;8.93;100.00;95569.13;5005104;28;20038;-57
2021/05/14 02:33:07;;;;;;;2.75;2.55;;;;;;;8.73;100.00;95571.13;5012454;28;20033;-61
2021/05/14 02:35:36;;;;;;;3.40;2.67;;;;;;;8.64;100.00;95571.25;5004633;28;20534;-61
2021/05/14 02:38:05;;;;;;;3.08;2.70;;;;;;;8.69;100.00;95569.78;5011056;28;20082;-59
2021/05/14 02:40:33;;;;;;;3.72;2.90;;;;;;;8.55;100.00;95570.38;5007980;28;20642;-58
2021/05/14 02:43:02;;;;;;;3.10;2.40;;;;;;;8.60;100.00;95572.53;5002071;28;20077;-58
2021/05/14 02:45:31;;;;;;;4.55;2.72;;;;;;;8.51;100.00;95574.28;4996506;28;20065;-60
2021/05/14 02:48:01;;;;;;;2.85;2.65;;;;;;;8.51;100.00;95579.53;5007598;28;20073;-62
2021/05/14 02:50:30;;;;;;;2.95;2.72;;;;;;;8.50;100.00;95575.28;5006325;28;20500;-61
2021/05/14 02:52:58;;;;;;;3.22;2.88;;;;;;;8.48;100.00;95572.78;5010904;28;20077;-60
2021/05/14 02:55:27;;;;;;;3.45;2.65;;;;;;;8.41;100.00;95566.50;5003169;28;20456;-58
2021/05/14 02:57:56;;;;;;;2.92;2.72;;;;;;;8.47;100.00;95567.69;5003512;28;20068;-62
2021/05/14 03:00:25;;;;;;;3.28;2.67;;;;;;;8.34;100.00;95570.69;5004042;28;20109;-62
2021/05/14 03:02:55;;;;;;;3.20;2.90;;;;;;;8.42;100.00;95572.56;5007986;28;20034;-61
2021/05/14 03:05:25;;;;;;;3.53;3.00;;;;;;;8.31;100.00;95577.06;5006783;28;20073;-62
2021/05/14 03:08:11;;;;;;;3.20;2.80;;;;;;;8.29;100.00;95575.56;5006685;28;20054;-61
2021/05/14 03:10:41;;;;;;;2.95;2.70;;;;;;;8.06;100.00;95580.47;5005379;28;20358;-60
2021/05/14 03:13:10;;;;;;;3.33;3.03;;;;;;;8.10;100.00;95576.56;5003013;28;20140;-60
2021/05/14 03:15:39;;;;;;;4.47;2.80;;;;;;;8.06;100.00;95573.41;5006733;28;20551;-60
2021/05/14 03:18:08;;;;;;;3.00;2.70;;;;;;;8.02;100.00;95576.50;5000741;28;20045;-61
2021/05/14 03:20:39;;;;;;;3.00;2.70;;;;;;;7.99;100.00;95574.16;5003690;28;20046;-61
2021/05/14 03:23:08;;;;;;;3.15;2.92;;;;;;;8.01;100.00;95583.53;5011369;28;20089;-58
2021/05/14 03:25:36;;;;;;;3.47;3.17;;;;;;;7.98;100.00;95581.22;5003507;28;20069;-59
2021/05/14 03:28:05;;;;;;;3.53;2.67;;;;;;;8.00;100.00;95576.63;5000817;28;20062;-63
2021/05/14 03:30:34;;;;;;;3.13;2.83;;;;;;;7.82;100.00;95589.75;4999848;28;20538;-63
2021/05/14 03:33:02;;;;;;;5.20;3.10;;;;;;;7.82;100.00;95586.31;5002614;28;20042;-63
2021/05/14 03:35:30;;;;;;;3.92;3.03;;;;;;;7.81;100.00;95589.88;5005277;28;20065;-60
2021/05/14 03:38:00;;;;;;;4.93;3.20;;;;;;;7.87;100.00;95584.06;5009061;28;20069;-58
2021/05/14 03:40:36;;;;;;;4.15;3.10;;;;;;;7.81;100.00;95585.50;5005123;28;20085;-60
2021/05/14 03:43:05;;;;;;;5.60;3.03;;;;;;;7.83;100.00;95588.78;4986282;28;20042;-63
2021/05/14 03:45:34;;;;;;;3.53;3.10;;;;;;;7.82;100.00;95586.31;5002951;28;20199;-63
2021/05/14 03:48:17;;;;;;;5.82;2.85;;;;;;;7.72;100.00;95582.94;5005850;28;20037;-60
2021/05/14 03:50:46;;;;;;;3.65;2.92;;;;;;;7.66;100.00;95586.97;5000946;28;20069;-62
2021/05/14 03:53:16;;;;;;;5.18;2.88;;;;;;;7.71;100.00;95587.34;5000261;28;20084;-63
2021/05/14 03:55:46;;;;;;;3.25;2.67;;;;;;;7.78;100.00;95584.97;5005325;28;20076;-62
2021/05/14 03:58:14;;;;;;;2.70;2.50;;;;;;;7.71;100.00;95584.72;5000324;28;20520;-62
2021/05/14 04:00:44;;;;;;;3.80;2.95;;;;;;;7.93;100.00;95582.63;5003397;28;20065;-61
2021/05/14 04:03:30;;;;;;;4.03;3.05;;;;;;;8.02;100.00;95577.31;5004381;28;20065;-61
2021/05/14 04:05:58;;;;;;;2.80;2.50;;;;;;;8.17;100.00;95571.53;5001251;28;20064;-61
2021/05/14 04:08:28;;;;;;;3.78;2.90;;;;;;;8.43;100.00;95575.06;5001104;28;20071;-58
2021/05/14 04:11:20;;;;;;;3.08;2.78;;;;;;;8.43;100.00;95574.22;5012140;28;20695;-62
2021/05/14 04:16:35;;;;;;;3.00;2.47;;;;;;;8.19;100.00;95578.28;4989427;28;20065;-62
2021/05/14 04:19:04;;;;;;;4.43;2.50;;;;;;;8.48;100.00;95582.47;5002563;28;20061;-62
2021/05/14 04:21:33;;;;;;;2.60;2.40;;;;;;;8.44;100.00;95571.44;5003603;28;20044;-61
2021/05/14 04:24:05;;;;;;;2.90;2.60;;;;;;;8.09;100.00;95580.16;5007719;28;20058;-60
2021/05/14 04:26:34;;;;;;;2.85;2.55;;;;;;;8.17;100.00;95576.78;5005297;28;20042;-61
2021/05/14 04:29:04;;;;;;;2.88;2.50;;;;;;;8.18;100.00;95573.16;5005631;28;20033;-60
2021/05/14 04:31:32;;;;;;;2.85;2.60;;;;;;;8.37;100.00;95574.81;5003863;28;20038;-63
2021/05/14 04:34:01;;;;;;;3.50;2.70;;;;;;;8.87;100.00;95579.44;5001800;28;20038;-63
2021/05/14 04:36:30;;;;;;;3.97;3.20;;;;;;;10.17;100.00;95568.50;5001281;28;20527;-62
2021/05/14 04:38:59;;;;;;;3.80;3.50;;;;;;;10.54;100.00;95565.38;5006834;28;20092;-58
2021/05/14 04:41:29;;;;;;;3.22;2.90;;;;;;;11.27;100.00;95558.28;5007996;28;20046;-64
2021/05/14 04:43:58;;;;;;;3.97;3.00;;;;;;;11.82;100.00;95552.06;5003560;28;20038;-62
2021/05/14 04:46:26;;;;;;;3.15;2.70;;;;;;;12.62;100.00;95549.00;5004196;28;20548;-61
2021/05/14 04:48:58;;;;;;;2.67;2.47;;;;;;;13.26;100.00;95556.47;5001101;28;20512;-61
2021/05/14 04:51:29;;;;;;;3.17;2.42;;;;;;;12.89;100.00;95557.34;4997139;28;20080;-63
2021/05/14 04:53:58;;;;;;;2.63;2.42;;;;;;;13.20;100.00;95551.88;5003309;28;20103;-61
2021/05/14 04:56:28;;;;;;;4.23;2.60;;;;;;;14.40;100.00;95549.59;5006041;28;20435;-60
2021/05/14 04:58:57;;;;;;;2.40;2.17;;;;;;;13.60;100.00;95547.13;5006455;28;20496;-61
2021/05/14 05:01:26;;;;;;;2.35;2.15;;;;;;;12.96;100.00;95555.63;5001075;28;20062;-62
2021/05/14 05:03:56;;;;;;;2.60;2.17;;;;;;;13.41;100.00;95544.03;5002975;28;20044;-61
2021/05/14 05:06:26;;;;;;;2.40;2.20;;;;;;;14.80;100.00;95546.47;4989459;28;20050;-61
2021/05/14 05:08:55;;;;;;;3.65;2.00;;;;;;;14.57;100.00;95542.22;4999205;28;20065;-61
2021/05/14 05:11:23;;;;;;;2.08;1.88;;;;;;;14.96;100.00;95549.63;4998647;28;20099;-63
2021/05/14 05:13:53;;;;;;;3.13;1.80;;;;;;;14.05;100.00;95546.00;5004104;28;20173;-59
2021/05/14 05:16:22;;;;;;;3.25;1.90;;;;;;;14.51;100.00;95552.78;5002900;28;20069;-58
2021/05/14 05:18:51;;;;;;;2.63;1.70;;;;;;;15.25;100.00;95546.97;4986683;28;20045;-61
2021/05/14 05:21:21;;;;;;;1.90;1.70;;;;;;;15.59;93.08;95551.44;5002349;28;20057;-58
2021/05/14 05:23:51;;;;;;;2.17;1.77;;;;;;;15.29;100.00;95548.22;5004514;28;20073;-59
2021/05/14 05:26:20;;;;;;;3.10;1.83;;;;;;;14.38;100.00;95550.78;5001646;28;20100;-60
2021/05/14 05:28:48;;;;;;;2.33;1.63;;;;;;;13.63;100.00;95552.06;5007149;28;20061;-61
2021/05/14 05:31:19;;;;;;;2.85;1.67;;;;;;;13.62;100.00;95553.06;5001320;28;20068;-60
2021/05/14 05:33:47;;;;;;;3.60;1.60;;;;;;;13.58;100.00;95549.13;5004848;28;20500;-60
2021/05/14 05:36:16;;;;;;;2.05;1.70;;;;;;;13.92;100.00;95557.28;5004613;28;20034;-62
2021/05/14 05:38:46;;;;;;;2.70;1.60;;;;;;;14.20;100.00;95551.22;5004020;28;20065;-61
2021/05/14 05:41:16;;;;;;;1.73;1.33;;;;;;;13.37;100.00;95556.00;5009721;28;20428;-58
2021/05/14 05:43:45;;;;;;;1.45;1.30;;;;;;;12.43;100.00;95568.84;4982660;28;20038;-60
2021/05/14 05:46:14;;;;;;;2.42;1.50;;;;;;;12.68;100.00;95569.44;4997015;28;20045;-61
2021/05/14 05:48:46;;;;;;;4.65;1.65;;;;;;;11.50;100.00;95574.22;5006390;28;20058;-57
2021/05/14 05:51:15;;;;;;;2.20;1.80;;;;;;;11.34;100.00;95580.38;5003372;28;20879;-61
2021/05/14 05:53:44;;;;;;;1.88;1.70;;;;;;;11.17;100.00;95590.97;5000729;28;20061;-55
2021/05/14 05:56:12;;;;;;;3.30;1.90;;;;;;;11.11;100.00;95583.75;5004699;28;20078;-60
2021/05/14 05:58:40;;;;;;;2.65;1.80;;;;;;;11.32;100.00;95587.63;4994536;28;20073;-61
2021/05/14 06:01:10;;;;;;;2.80;2.00;;;;;;;11.42;100.00;95585.59;4995864;28;20085;-61
2021/05/14 06:03:39;;;;;;;3.13;2.05;;;;;;;11.08;100.00;95583.25;5000683;28;20658;-60
2021/05/14 06:06:09;;;;;;;2.63;1.92;;;;;;;11.29;100.00;95593.25;5000635;28;20080;-61
2021/05/14 06:08:37;;;;;;;;;;;;;;;11.51;100.00;95595.16;5003176;28;20129;-61
2021/05/14 06:11:06;;;;;;;2.85;2.00;;;;;;;11.70;100.00;95598.34;5004645;28;19967;-60
2021/05/14 06:13:35;;;;;;;3.38;1.95;;;;;;;11.59;100.00;95595.09;5000611;28;20512;-59
2021/05/14 06:16:04;;;;;;;2.00;1.80;;;;;;;11.59;100.00;95589.81;5001913;28;20077;-57
2021/05/14 06:18:36;;;;;;;3.85;2.35;;;;;;;11.84;100.00;95593.22;5000958;28;20066;-60
2021/05/14 06:21:06;;;;;;;3.10;2.00;;;;;;;11.74;100.00;95589.94;5000431;28;20058;-60
2021/05/14 06:23:36;;;;;;;2.03;1.77;;;;;;;11.82;100.00;95589.06;4999619;28;20061;-60
2021/05/14 06:26:05;;;;;;;4.72;2.47;;;;;;;11.87;100.00;95592.88;5008660;28;20077;-60
2021/05/14 06:28:33;;;;;;;2.00;1.90;;;;;;;11.97;100.00;95592.63;5000639;28;20041;-59
2021/05/14 06:31:04;;;;;;;2.20;1.90;;;;;;;12.08;100.00;95597.53;5005127;28;20517;-60
2021/05/14 06:33:33;;;;;;;2.28;2.08;;;;;;;12.18;100.00;95589.38;5002810;28;20058;-61
2021/05/14 06:36:03;;;;;;;3.00;2.08;;;;;;;12.40;100.00;95593.00;5004935;28;20070;-61
2021/05/14 06:38:50;;;;;;;2.22;1.70;;;;;;;12.15;100.00;95591.50;5005031;28;20130;-62
2021/05/14 06:41:20;;;;;;;2.58;1.92;;;;;;;12.64;100.00;95594.63;5005461;28;20480;-59
2021/05/14 06:43:49;;;;;;;2.35;1.85;;;;;;;12.69;100.00;95594.06;5011312;28;20053;-58
2021/05/14 06:46:17;;;;;;;2.10;1.90;;;;;;;12.45;100.00;95600.38;5002336;28;20066;-60
2021/05/14 06:48:47;;;;;;;2.10;1.90;;;;;;;12.84;100.00;95592.31;5004082;28;20049;-61
2021/05/14 06:51:16;;;;;;;2.57;1.80;;;;;;;12.78;100.00;95595.66;5010256;28;20077;-60
2021/05/14 06:53:44;;;;;;;2.75;1.77;;;;;;;13.00;100.00;95594.75;5001761;28;20526;-52
2021/05/14 06:56:15;;;;;;;2.20;1.90;;;;;;;13.21;100.00;95599.38;5002011;28;20088;-57
2021/05/14 06:58:44;;;;;;;2.22;1.90;;;;;;;13.03;100.00;95610.28;5003499;28;20052;-58
2021/05/14 07:01:15;;;;;;;2.50;1.90;;;;;;;13.23;100.00;95609.75;5000101;28;20052;-61
2021/05/14 07:03:43;;;;;;;3.08;2.10;;;;;;;13.14;100.00;95610.84;5000268;28;20069;-60
2021/05/14 07:06:13;;;;;;;3.22;2.00;;;;;;;13.21;100.00;95612.59;5003907;28;20065;-60
2021/05/14 07:08:42;;;;;;;2.00;1.80;;;;;;;13.44;100.00;95623.13;5001919;28;20042;-59
2021/05/14 07:11:11;;;;;;;2.95;1.65;;;;;;;13.34;100.00;95611.16;5004510;28;20065;-59
2021/05/14 07:13:41;;;;;;;2.40;1.80;;;;;;;13.63;100.00;95618.28;4989261;28;20069;-60
2021/05/14 07:16:09;;;;;;;3.47;1.63;;;;;;;14.09;100.00;95608.22;5003906;28;20085;-58
2021/05/14 07:18:37;;;;;;;2.25;1.75;;;;;;;13.94;100.00;95618.88;5001203;28;20045;-59
2021/05/14 07:23:58;;;;;;;1.50;1.40;;;;;;;14.35;100.00;95613.00;4967838;28;20066;-48
2021/05/14 07:26:27;;;;;;;1.75;1.60;;;;;;;14.53;100.00;95609.94;4965604;28;20082;-45
2021/05/14 07:29:02;;;;;;;3.00;1.63;;;;;;;14.37;100.00;95603.00;4951666;28;20082;-47
2021/05/14 07:31:31;;;;;;;;;;;;;;;14.43;100.00;95604.09;4960307;28;20074;-45
2021/05/14 07:34:00;;;;;;;2.55;1.92;;;;;;;14.44;100.00;95601.25;4947517;28;19969;-47
2021/05/14 07:36:28;;;;;;;1.75;1.48;;;;;;;14.52;100.00;95613.63;4929344;28;20074;-49
2021/05/14 07:38:57;;;;;;;1.80;1.40;;;;;;;14.38;100.00;95602.03;4944480;28;20047;-45
2021/05/14 07:41:26;;;;;;;3.20;1.47;;;;;;;14.49;100.00;95606.00;4945412;28;20464;-45
2021/05/14 07:43:55;;;;;;;2.13;1.50;;;;;;;14.40;100.00;95610.59;4949999;28;20098;-51
2021/05/14 07:46:24;;;;;;;2.03;1.40;;;;;;;14.66;100.00;95612.72;4945952;28;20047;-45
2021/05/14 07:48:56;;;;;;;2.63;1.60;;;;;;;15.01;100.00;95611.97;4945775;28;20510;-46
2021/05/14 07:51:24;;;;;;;1.73;1.50;;;;;;;14.89;100.00;95611.66;4945814;28;20075;-47
2021/05/14 07:53:53;;;;;;;1.80;1.50;;;;;;;15.25;100.00;95603.56;4946285;28;20071;-46
2021/05/14 07:56:23;;;;;;;2.13;1.40;;;;;;;14.69;100.00;95607.03;4945879;28;20051;-48
2021/05/14 07:58:51;;;;;;;2.45;1.60;;;;;;;15.18;100.00;95610.66;4946156;28;20070;-47
2021/05/14 08:01:20;;;;;;;2.03;1.35;;;;;;;14.95;100.00;95600.28;4946509;28;20339;-49
2021/05/14 08:03:49;;;;;;;2.28;1.50;;;;;;;15.39;100.00;95607.13;4947618;28;20067;-50
2021/05/14 08:06:19;;;;;;;2.30;1.50;;;;;;;15.24;100.00;95606.41;4947088;28;20073;-47
2021/05/14 08:08:48;;;;;;;1.55;1.40;;;;;;;15.59;100.00;95613.38;4944780;28;20077;-50
2021/05/14 08:11:16;;;;;;;2.20;1.40;;;;;;;15.10;100.00;95610.78;4947084;28;20070;-48
2021/05/14 08:13:44;;;;;;;1.45;1.20;;;;;;;15.23;100.00;95612.72;4947441;28;20051;-46
2021/05/14 08:16:14;;;;;;;1.30;1.20;;;;;;;15.75;100.00;95606.91;4930537;28;20106;-46
2021/05/14 08:18:43;;;;;;;2.15;1.30;;;;;;;15.92;100.00;95601.25;4945486;28;20071;-46
2021/05/14 08:21:12;;;;;;;2.38;1.30;;;;;;;15.84;100.00;95604.91;4940874;28;20067;-46
2021/05/14 08:23:41;;;;;;;2.42;1.20;;;;;;;15.94;100.00;95601.91;4945470;28;20520;-51
2021/05/14 08:26:10;;;;;;;1.45;1.25;;;;;;;16.25;97.97;95604.84;4949651;28;20078;-49
2021/05/14 08:28:40;;;;;;;1.90;1.10;;;;;;;15.86;100.00;95609.03;4943070;28;20514;-45
2021/05/14 08:31:08;;;;;;;1.25;1.05;;;;;;;15.20;100.00;95613.94;4944371;28;20071;-46
2021/05/14 08:33:38;;;;;;;1.92;1.23;;;;;;;15.78;100.00;95616.34;4944228;28;20078;-47
2021/05/14 08:36:07;;;;;;;1.42;1.10;;;;;;;15.90;100.00;95606.78;4944198;28;20063;-46
2021/05/14 08:38:37;;;;;;;1.70;1.10;;;;;;;16.00;100.00;95599.25;4935503;28;20097;-48
2021/05/14 08:41:06;;;;;;;1.43;1.20;;;;;;;16.24;100.00;95603.22;4936117;28;20138;-46
2021/05/14 08:43:34;;;;;;;1.55;1.35;;;;;;;16.34;100.00;95606.31;4943558;28;20078;-46
2021/05/14 08:46:04;;;;;;;2.00;1.17;;;;;;;16.59;100.00;95608.41;4946460;28;20503;-48
2021/05/14 08:48:35;;;;;;;4.22;0.98;;;;;;;16.37;97.90;95600.56;4944977;28;20058;-46
2021/05/14 08:51:09;;;;;;;1.30;1.10;;;;;;;16.05;100.00;95606.63;4944205;28;20074;-50
2021/05/14 08:53:40;;;;;;;1.10;1.00;;;;;;;16.25;100.00;95604.84;4945436;28;20102;-47
2021/05/14 08:56:09;;;;;;;2.17;1.00;;;;;;;16.08;96.72;95604.38;4946387;28;20071;-48
2021/05/14 08:58:38;;;;;;;1.85;0.98;;;;;;;15.72;100.00;95609.97;4944175;28;20062;-46
2021/05/14 09:01:08;;;;;;;1.83;1.23;;;;;;;16.22;100.00;95597.28;4940056;28;20870;-46
2021/05/14 09:03:58;;;;;;;1.17;1.00;;;;;;;15.75;91.85;95603.44;4945536;28;20071;-47
2021/05/14 09:06:30;;;;;;;1.50;1.23;;;;;;;16.24;100.00;95597.91;4943058;28;20540;-45
2021/05/14 09:09:01;;;;;;;1.70;1.20;;;;;;;16.03;98.30;95601.50;4944906;28;20083;-48
2021/05/14 09:11:38;;;;;;;1.13;1.02;;;;;;;16.15;89.60;95596.44;4940732;28;20077;-45
2021/05/14 09:14:08;;;;;;;1.20;1.10;;;;;;;16.69;81.39;95592.84;4946348;28;20067;-45
2021/05/14 09:16:41;;;;;;;2.10;1.20;;;;;;;16.90;90.99;95601.69;4916017;28;20055;-45
2021/05/14 09:19:11;;;;;;;2.17;1.10;;;;;;;16.66;100.00;95598.56;4942971;28;20888;-49
2021/05/14 09:21:43;;;;;;;1.15;1.05;;;;;;;16.63;90.34;95596.31;4940580;28;20055;-48
2021/05/14 09:24:13;;;;;;;1.27;1.10;;;;;;;16.75;81.91;95589.38;4943120;28;20070;-50
2021/05/14 09:26:41;;;;;;;1.52;1.08;;;;;;;16.98;92.46;95596.97;4942194;28;20447;-47
2021/05/14 09:29:38;;;;;;;2.03;1.15;;;;;;;17.29;72.86;95592.84;4945143;28;20087;-47
2021/05/14 09:32:21;;;;;;;1.80;1.20;;;;;;;17.36;89.77;95585.66;4943298;28;20073;-50
2021/05/14 09:34:51;;;;;;;1.67;1.25;;;;;;;17.62;98.46;95590.09;4943593;28;20050;-50
2021/05/14 09:37:23;;;;;;;1.10;1.00;;;;;;;17.31;94.88;95591.63;4941200;28;20074;-49
2021/05/14 09:40:12;;;;;;;1.48;1.00;;;;;;;17.04;91.79;95590.81;4945973;28;20059;-48
2021/05/14 09:42:41;;;;;;;1.15;0.90;;;;;;;17.49;84.44;95585.63;4938382;28;20044;-47
2021/05/14 09:45:21;;;;;;;0.90;0.90;;;;;;;17.62;92.03;95581.25;4941087;28;20051;-47
2021/05/14 09:48:01;;;;;;;1.30;1.10;;;;;;;18.13;64.74;95583.94;4922574;29;20043;-46
2021/05/14 09:50:34;;;;;;;1.02;0.93;;;;;;;17.66;75.94;95585.97;4942897;28;20613;-49
2021/05/14 09:53:11;;;;;;;1.10;1.00;;;;;;;18.20;71.51;95583.91;4946411;28;20051;-49
2021/05/14 09:55:45;;;;;;;1.00;0.90;;;;;;;18.25;64.94;95576.91;4945040;28;20671;-49
2021/05/14 09:58:18;;;;;;;1.35;1.10;;;;;;;17.42;79.28;95584.00;4941742;28;20078;-46
2021/05/14 10:00:47;;;;;;;1.73;1.00;;;;;;;17.16;80.01;95582.19;4946820;28;20070;-48
2021/05/14 10:03:17;;;;;;;0.95;0.88;;;;;;;17.20;80.58;95581.56;4945574;28;20094;-48
2021/05/14 10:05:47;;;;;;;1.25;1.00;;;;;;;17.16;87.33;95590.19;4949251;28;20094;-48
2021/05/14 10:08:19;;;;;;;1.70;1.00;;;;;;;17.58;97.42;95588.88;4946453;28;20063;-49
2021/05/14 10:10:50;;;;;;;2.38;1.00;;;;;;;17.55;70.86;95582.13;4950480;28;20058;-47
2021/05/14 10:13:19;;;;;;;0.85;0.85;;;;;;;17.42;72.57;95578.69;4946657;28;20066;-50
2021/05/14 10:15:47;;;;;;;1.08;1.00;;;;;;;17.01;75.08;95579.75;4948288;28;20066;-45
2021/05/14 10:18:18;;;;;;;2.40;1.10;;;;;;;17.35;79.46;95583.22;4943933;28;20165;-48
2021/05/14 10:20:47;;;;;;;1.25;1.00;;;;;;;17.24;63.97;95580.16;4949167;28;20510;-46
2021/05/14 10:23:17;;;;;;;2.35;0.88;;;;;;;16.73;74.89;95577.28;4946998;28;20090;-49
2021/05/14 10:25:49;;;;;;;0.90;0.90;;;;;;;17.23;73.52;95581.16;4951205;28;20059;-51
2021/05/14 10:28:39;;;;;;;1.47;1.00;;;;;;;17.58;71.94;95574.72;4944732;28;20055;-49
2021/05/14 10:31:18;;;;;;;1.15;0.80;;;;;;;18.24;77.28;95574.47;4945529;28;20063;-51
2021/05/14 10:33:52;;;;;;;0.85;0.82;;;;;;;18.70;73.93;95576.00;4944958;28;20047;-45
2021/05/14 10:36:49;;;;;;;1.52;0.98;;;;;;;18.83;72.53;95569.78;4947756;28;20569;-50
2021/05/14 10:39:32;;;;;;;2.03;0.80;;;;;;;19.31;58.71;95577.16;4943917;28;20043;-50
2021/05/14 10:42:06;;;;;;;0.93;0.82;;;;;;;19.30;54.41;95570.97;4947957;28;20529;-47
2021/05/14 10:44:51;;;;;;;2.45;1.00;;;;;;;18.41;63.50;95564.06;4946276;28;20248;-46
2021/05/14 10:47:48;;;;;;;2.28;1.20;;;;;;;18.80;57.04;95573.69;4946507;28;20090;-50
2021/05/14 10:50:38;;;;;;;0.80;0.80;;;;;;;19.62;54.27;95565.53;4943790;28;20075;-52
2021/05/14 10:53:29;;;;;;;0.88;0.77;;;;;;;18.50;65.06;95560.94;4950614;28;20083;-46
2021/05/14 10:56:26;;;;;;;0.75;0.75;;;;;;;18.16;64.58;95564.84;4945774;28;20384;-48
2021/05/14 10:59:10;;;;;;;1.98;0.90;;;;;;;18.47;61.10;95552.53;4945642;28;20061;-50
2021/05/14 11:01:43;;;;;;;0.90;0.80;;;;;;;18.57;55.29;95566.25;4947331;28;20075;-47
2021/05/14 11:04:43;;;;;;;1.58;1.00;;;;;;;18.21;74.40;95562.38;4945209;28;20078;-48
2021/05/14 11:07:36;;;;;;;1.15;1.02;;;;;;;18.26;74.29;95559.88;4946802;28;20129;-48
2021/05/14 11:10:30;;;;;;;1.23;1.00;;;;;;;18.38;72.96;95559.19;4945740;28;20083;-55
2021/05/14 11:12:58;;;;;;;0.80;0.80;;;;;;;17.72;86.36;95558.47;4947960;28;20144;-49
2021/05/14 11:15:35;;;;;;;1.63;0.88;;;;;;;17.65;76.54;95556.84;4946138;28;20541;-50
2021/05/14 11:18:26;;;;;;;1.67;0.80;;;;;;;17.99;81.19;95558.38;4947207;28;20048;-49
2021/05/14 11:20:56;;;;;;;1.60;0.77;;;;;;;18.55;67.07;95559.47;4945803;28;20078;-48
2021/05/14 11:23:34;;;;;;;2.50;0.90;;;;;;;18.89;56.53;95550.19;4947533;28;20047;-48
2021/05/14 11:26:04;;;;;;;2.55;1.08;;;;;;;18.53;60.20;95551.69;4948986;28;20086;-52
2021/05/14 11:28:40;;;;;;;0.80;0.80;;;;;;;18.55;55.77;95554.13;4947359;28;20106;-49
2021/05/14 11:34:17;;;;;;;0.70;0.70;;;;;;;19.23;58.11;95556.88;4936035;28;20058;-52
2021/05/14 11:36:48;;;;;;;1.52;1.00;;;;;;;18.38;56.44;95552.00;4946562;28;20066;-51
2021/05/14 11:39:22;;;;;;;0.85;0.80;;;;;;;19.30;56.53;95556.78;4947546;28;20104;-50
2021/05/14 11:41:59;;;;;;;1.00;0.80;;;;;;;19.06;51.87;95556.63;4945717;28;20047;-49
2021/05/14 11:44:28;;;;;;;1.50;0.90;;;;;;;19.12;51.27;95555.75;4947961;28;20106;-50
2021/05/14 11:47:02;;;;;;;2.15;0.80;;;;;;;19.31;51.22;95555.78;4948073;28;20125;-56
2021/05/14 11:49:38;;;;;;;1.55;1.00;;;;;;;20.05;49.34;95545.88;4946159;28;21659;-52
2021/05/14 11:52:06;;;;;;;1.50;0.80;;;;;;;19.52;49.62;95552.66;4945132;28;20229;-52
2021/05/14 11:54:35;;;;;;;1.40;0.80;;;;;;;18.72;56.63;95556.09;4945164;28;20075;-53
2021/05/14 11:57:05;;;;;;;0.88;0.70;;;;;;;18.70;59.28;95555.47;4941171;28;20047;-47
2021/05/14 11:59:35;;;;;;;1.10;0.90;;;;;;;18.53;59.77;95554.34;4947473;28;20046;-50